createdAt,value
2019-03-18T01:31:35.276Z,10.15
2019-03-18T01:34:25.119Z,11.13
2019-03-18T01:37:09.183Z,11.93
2019-03-18T01:39:34.386Z,10.72
2019-03-18T01:42:04.441Z,11.57
2019-03-18T01:44:34.895Z,11.75
2019-03-18T01:47:06.393Z,11.35
2019-03-18T01:49:36.421Z,11.70
2019-03-18T01:52:06.476Z,12.73
2019-03-18T01:54:38.102Z,11.85
2019-03-18T01:57:10.177Z,11.28
2019-03-18T01:59:49.157Z,13.00
2019-03-18T02:02:32.747Z,12.58
2019-03-18T02:08:19.617Z,12.73
2019-03-18T02:20:28.891Z,13.93
2019-03-18T02:23:11.315Z,13.75
2019-03-18T02:29:19.721Z,13.22
2019-03-18T02:31:51.072Z,13.25
2019-03-18T02:34:46.498Z,12.68
2019-03-18T02:37:43.185Z,13.18
2019-03-18T02:46:32.105Z,14.50
2019-03-18T02:55:26.367Z,15.00
2019-03-18T03:04:27.188Z,13.50
2019-03-18T03:07:39.653Z,13.93
2019-03-18T03:10:23.069Z,13.98
2019-03-18T03:16:07.155Z,14.73
2019-03-18T03:21:55.410Z,15.55
2019-03-18T03:25:07.654Z,14.07
2019-03-18T03:28:07.689Z,13.08
2019-03-18T03:31:07.933Z,14.15
2019-03-18T03:43:30.418Z,13.45
2019-03-18T03:58:30.421Z,13.35
2019-03-18T04:04:28.384Z,12.25
2019-03-18T04:07:20.379Z,12.82
2019-03-18T04:10:05.542Z,10.68
2019-03-18T04:12:43.005Z,8.68
2019-03-18T04:15:21.635Z,8.55
2019-03-18T04:17:57.764Z,7.87
2019-03-18T04:20:30.710Z,6.35
2019-03-18T04:23:13.407Z,4.62
2019-03-18T04:25:50.497Z,3.55
2019-03-18T04:28:30.081Z,3.12
2019-03-18T04:31:10.588Z,3.65
2019-03-18T04:33:53.205Z,3.30
2019-03-18T04:36:37.931Z,4.67
2019-03-18T04:39:26.841Z,3.58
2019-03-18T04:42:13.324Z,2.92
2019-03-18T04:47:48.389Z,3.42
2019-03-18T04:53:42.437Z,2.95
2019-03-18T04:56:35.848Z,3.58
2019-03-18T04:59:28.087Z,4.53
2019-03-18T05:02:43.047Z,5.78
2019-03-18T05:11:28.810Z,8.30
2019-03-18T05:20:40.759Z,7.95
2019-03-18T05:35:21.507Z,6.22
2019-03-18T05:38:03.973Z,6.10
2019-03-18T05:40:55.688Z,4.12
2019-03-18T05:43:36.954Z,2.77
2019-03-18T06:01:50.367Z,2.25
2019-03-18T06:36:17.808Z,2.33
2019-03-18T09:42:28.612Z,2.27
2019-03-18T09:45:28.664Z,2.90
2019-03-18T09:47:59.212Z,3.10
2019-03-18T09:50:28.990Z,3.40
2019-03-18T09:59:09.428Z,2.52
2019-03-18T10:01:40.041Z,2.22
2019-03-18T10:10:32.986Z,2.08
2019-03-18T10:21:54.737Z,2.05
2019-03-18T10:42:21.852Z,2.17
2019-03-18T10:45:11.667Z,1.52
2019-03-18T10:50:51.059Z,2.22
2019-03-18T10:53:21.154Z,2.05
2019-03-18T10:56:25.260Z,1.80
2019-03-18T10:59:18.433Z,2.27
2019-03-18T11:01:48.238Z,2.50
2019-03-18T11:04:18.162Z,1.87
2019-03-18T11:06:50.395Z,2.02
2019-03-18T11:09:24.981Z,2.55
2019-03-18T11:11:54.915Z,2.87
2019-03-18T11:14:26.448Z,2.50
2019-03-18T11:16:56.410Z,2.80
2019-03-18T11:19:29.714Z,2.20
2019-03-18T11:22:01.184Z,3.10
2019-03-18T11:24:31.887Z,2.30
2019-03-18T11:27:04.848Z,2.30
2019-03-18T11:32:36.583Z,2.37
2019-03-18T11:38:09.353Z,2.02
2019-03-18T11:40:39.982Z,1.85
2019-03-18T11:43:10.175Z,2.62
2019-03-18T11:45:44.831Z,2.05
2019-03-18T11:48:20.007Z,1.80
2019-03-18T11:50:50.040Z,1.98
2019-03-18T11:53:40.863Z,2.62
2019-03-18T11:56:17.934Z,2.58
2019-03-18T11:59:02.179Z,2.42
2019-03-18T12:01:32.756Z,2.42
2019-03-18T12:04:12.740Z,2.42
2019-03-18T12:06:45.555Z,1.92
2019-03-18T12:12:33.832Z,2.10
2019-03-18T12:15:21.513Z,2.50
2019-03-18T12:23:55.638Z,2.35
2019-03-18T12:29:47.151Z,2.20
2019-03-18T12:32:28.344Z,1.40
2019-03-18T12:34:58.151Z,1.60
2019-03-18T12:37:29.413Z,1.95
2019-03-18T12:39:59.311Z,2.00
2019-03-18T12:42:33.341Z,1.92
2019-03-18T12:45:16.655Z,1.70
2019-03-18T12:47:47.286Z,2.30
2019-03-18T12:50:55.198Z,2.87
2019-03-18T12:53:00.257Z,2.25
2019-03-18T12:55:31.486Z,2.40
2019-03-18T12:58:01.654Z,2.17
2019-03-18T13:00:57.779Z,2.42
2019-03-18T13:09:15.782Z,2.15
2019-03-18T13:11:56.315Z,2.60
2019-03-18T13:14:28.419Z,2.25
2019-03-18T13:17:02.884Z,2.10
2019-03-18T13:19:35.603Z,2.12
2019-03-18T13:25:23.655Z,1.85
2019-03-18T13:28:10.468Z,1.70
2019-03-18T13:33:52.453Z,1.80
2019-03-18T13:36:31.223Z,2.17
2019-03-18T13:48:12.940Z,1.62
2019-03-18T13:50:46.834Z,2.33
2019-03-18T17:47:22.969Z,1.62
2019-03-18T17:49:52.805Z,1.60
2019-03-18T17:52:27.717Z,1.87
2019-03-18T17:54:57.652Z,2.12
2019-03-18T17:57:32.727Z,1.55
2019-03-18T18:02:59.264Z,1.95
2019-03-18T18:05:29.140Z,1.95
2019-03-18T18:08:02.088Z,2.50
2019-03-18T18:10:39.485Z,2.10
2019-03-18T18:13:17.029Z,1.77
2019-03-18T18:15:52.915Z,1.95
2019-03-18T18:18:27.153Z,1.60
2019-03-18T18:21:02.280Z,2.10
2019-03-18T18:23:50.625Z,1.92
